METAR Formatted Surface Weather Observation
Issued by NWS Honolulu, HI

Home | Current Version | Previous Version | Text Only | Print | Product List | Glossary On
Versions: 1 2
000
SAHW31 PHFO 212156
MTRLIH
METAR PHLI 212153Z 05010KT 10SM CLR 28/22 A3006 RMK AO2 SLP175
T02830222


USA.gov is the U.S. government's official web portal to all federal, state and local government web resources and services.